Time;durP1;ratioP1;P1;durP2;ratioP2;P2;SDS_P1;SDS_P2;PMS_P1;PMS_P2;Temp;Humidity;BMP_temperature;BMP_pressure;BME280_temperature;BME280_humidity;BME280_pressure;Samples;Min_cycle;Max_cycle;Signal;HPM_P1;HPM_P2
2021/11/28 00:00:54;;;;;;;20.43;8.87;;;4.90;99.90;;;;;;4897401;29;20704;-76
2021/11/28 00:03:21;;;;;;;18.83;9.60;;;4.90;99.90;;;;;;4897504;29;20211;-76
2021/11/28 00:05:57;;;;;;;20.27;9.27;;;4.90;99.90;;;;;;4897881;29;20294;-76
2021/11/28 00:08:38;;;;;;;21.33;8.53;;;5.00;99.90;;;;;;4898003;29;20273;-74
2021/11/28 00:11:19;;;;;;;21.47;9.53;;;4.90;99.90;;;;;;4897976;29;20210;-77
2021/11/28 00:14:06;;;;;;;21.50;9.53;;;5.10;99.90;;;;;;4897689;29;20733;-76
2021/11/28 00:16:34;;;;;;;21.43;9.03;;;5.20;99.90;;;;;;4892359;29;20199;-74
2021/11/28 00:19:00;;;;;;;21.27;9.57;;;5.30;99.90;;;;;;4897337;29;20218;-75
2021/11/28 00:21:27;;;;;;;17.03;9.17;;;5.20;99.90;;;;;;4897320;29;20211;-76
2021/11/28 00:23:54;;;;;;;21.57;9.50;;;5.10;99.90;;;;;;4898608;29;20220;-76
2021/11/28 00:26:22;;;;;;;21.03;9.13;;;5.10;99.90;;;;;;4899088;29;21286;-75
2021/11/28 00:28:49;;;;;;;23.37;8.93;;;5.20;99.90;;;;;;4898853;29;20234;-76
2021/11/28 00:31:16;;;;;;;16.43;8.07;;;5.40;99.90;;;;;;4899051;29;20216;-76
2021/11/28 00:33:43;;;;;;;20.27;8.47;;;5.40;99.90;;;;;;4893186;29;20241;-77
2021/11/28 00:36:10;;;;;;;19.17;9.60;;;5.30;99.90;;;;;;4880219;29;20215;-76
2021/11/28 00:38:37;;;;;;;20.53;9.43;;;5.40;99.90;;;;;;4880020;29;20212;-75
2021/11/28 00:41:04;;;;;;;23.23;8.90;;;5.40;99.90;;;;;;4879320;29;20679;-76
2021/11/28 00:43:32;;;;;;;18.93;9.03;;;5.40;99.90;;;;;;4879982;29;20270;-76
2021/11/28 00:45:59;;;;;;;18.90;9.10;;;5.40;99.90;;;;;;4880265;29;20211;-76
2021/11/28 00:48:29;;;;;;;20.63;8.27;;;5.40;99.90;;;;;;4880188;29;20221;-73
2021/11/28 00:51:21;;;;;;;19.13;8.53;;;5.40;99.90;;;;;;4879995;29;20298;-75
2021/11/28 00:53:50;;;;;;;17.17;8.53;;;5.50;99.90;;;;;;4879831;29;20715;-76
2021/11/28 00:56:18;;;;;;;18.77;8.57;;;5.70;99.90;;;;;;4879796;29;20211;-75
2021/11/28 00:58:47;;;;;;;17.63;8.27;;;5.80;99.90;;;;;;4879859;29;20215;-76
2021/11/28 01:01:14;;;;;;;20.13;8.67;;;5.80;99.90;;;;;;4879477;29;20211;-75
2021/11/28 01:03:40;;;;;;;17.57;8.53;;;5.90;99.90;;;;;;4879555;29;20223;-76
2021/11/28 01:06:07;;;;;;;17.33;8.43;;;6.00;99.90;;;;;;4879558;29;20207;-76
2021/11/28 01:08:34;;;;;;;16.90;8.03;;;5.90;99.90;;;;;;4879441;29;20561;-76
2021/11/28 01:11:01;;;;;;;19.27;8.27;;;5.90;99.90;;;;;;4879605;29;20211;-75
2021/11/28 01:13:28;;;;;;;20.73;8.27;;;5.80;99.90;;;;;;4879470;29;20601;-75
2021/11/28 01:15:56;;;;;;;19.30;7.87;;;5.90;99.90;;;;;;4879686;29;20218;-75
2021/11/28 01:18:23;;;;;;;21.27;9.00;;;5.80;99.90;;;;;;4879350;29;20225;-75
2021/11/28 01:20:50;;;;;;;18.63;8.13;;;5.90;99.90;;;;;;4879516;29;20231;-76
2021/11/28 01:23:16;;;;;;;14.97;7.27;;;5.80;99.90;;;;;;4879884;29;20211;-75
2021/11/28 01:25:44;;;;;;;15.40;7.57;;;6.00;99.90;;;;;;4878797;29;20211;-73
2021/11/28 01:28:10;;;;;;;17.17;7.53;;;5.90;99.90;;;;;;4878583;29;20215;-74
2021/11/28 01:30:37;;;;;;;15.33;7.33;;;5.90;99.90;;;;;;4878169;29;20787;-74
2021/11/28 01:33:05;;;;;;;18.37;7.30;;;5.90;99.90;;;;;;4878510;29;20240;-74
2021/11/28 01:35:35;;;;;;;17.37;7.60;;;6.00;99.90;;;;;;4878556;29;20621;-75
2021/11/28 01:38:02;;;;;;;12.27;6.43;;;6.10;99.90;;;;;;4878942;29;20210;-76
2021/11/28 01:40:29;;;;;;;13.70;6.57;;;6.10;99.90;;;;;;4879310;29;20235;-76
2021/11/28 01:43:01;;;;;;;12.33;6.37;;;6.00;99.90;;;;;;4879274;29;20238;-75
2021/11/28 01:45:31;;;;;;;15.27;6.47;;;6.00;99.90;;;;;;4878491;29;20215;-74
2021/11/28 01:48:01;;;;;;;12.90;6.37;;;6.20;99.90;;;;;;4878672;29;20215;-75
2021/11/28 01:50:31;;;;;;;17.73;7.13;;;6.10;99.90;;;;;;4879572;29;20242;-75
2021/11/28 01:52:58;;;;;;;14.20;6.27;;;6.20;99.90;;;;;;4878582;29;20261;-75
2021/11/28 01:55:33;;;;;;;15.50;6.90;;;6.20;99.90;;;;;;4878734;29;20214;-75
2021/11/28 01:58:02;;;;;;;12.43;6.83;;;6.30;99.90;;;;;;4878862;29;20210;-75
2021/11/28 02:00:32;;;;;;;12.70;5.83;;;6.30;99.90;;;;;;4878725;29;20235;-76
2021/11/28 02:03:00;;;;;;;12.37;5.60;;;6.40;99.90;;;;;;4878125;29;20226;-75
2021/11/28 02:05:30;;;;;;;12.10;6.40;;;6.60;99.90;;;;;;4877941;29;20207;-75
2021/11/28 02:07:57;;;;;;;11.30;5.50;;;6.50;99.90;;;;;;4878351;29;20211;-75
2021/11/28 02:10:24;;;;;;;14.53;6.00;;;6.60;99.90;;;;;;4877739;29;20235;-75
2021/11/28 02:12:51;;;;;;;11.53;5.90;;;6.60;99.90;;;;;;4878041;29;20238;-75
2021/11/28 02:15:19;;;;;;;14.07;5.93;;;6.50;99.90;;;;;;4878431;29;20215;-75
2021/11/28 02:17:54;;;;;;;11.97;5.27;;;6.40;99.90;;;;;;4878867;29;20588;-75
2021/11/28 02:20:22;;;;;;;10.50;5.33;;;6.60;99.90;;;;;;4878465;29;20253;-74
2021/11/28 02:22:52;;;;;;;14.13;5.87;;;6.70;99.90;;;;;;4878845;29;20238;-75
2021/11/28 02:25:19;;;;;;;19.97;6.33;;;6.60;99.90;;;;;;4878696;29;20211;-75
2021/11/28 02:27:46;;;;;;;13.50;5.53;;;6.60;99.90;;;;;;4878586;29;20315;-75
2021/11/28 02:30:17;;;;;;;12.20;5.97;;;6.60;99.90;;;;;;4878440;29;20238;-75
2021/11/28 02:32:43;;;;;;;12.37;6.37;;;6.60;99.90;;;;;;4878857;29;20207;-75
2021/11/28 02:35:14;;;;;;;13.00;6.47;;;6.60;99.90;;;;;;4878610;29;20218;-75
2021/11/28 02:37:41;;;;;;;15.13;7.60;;;6.70;99.90;;;;;;4878710;29;20207;-75
2021/11/28 02:40:11;;;;;;;18.57;7.60;;;6.70;99.90;;;;;;4878282;29;20245;-76
2021/11/28 02:42:38;;;;;;;16.47;8.33;;;6.70;99.90;;;;;;4878665;29;20676;-74
2021/11/28 02:45:06;;;;;;;20.67;9.17;;;6.70;99.90;;;;;;4878810;29;20215;-74
2021/11/28 02:47:33;;;;;;;22.07;9.87;;;6.40;99.90;;;;;;4878985;29;20211;-75
2021/11/28 02:50:00;;;;;;;20.93;10.13;;;6.20;99.90;;;;;;4878412;29;20235;-74
2021/11/28 02:52:27;;;;;;;21.87;10.97;;;6.00;99.90;;;;;;4878568;29;20303;-73
2021/11/28 02:54:54;;;;;;;26.40;10.07;;;5.90;99.90;;;;;;4878298;29;20322;-75
2021/11/28 02:57:23;;;;;;;24.93;10.60;;;5.80;99.90;;;;;;4878517;29;20215;-74
2021/11/28 02:59:50;;;;;;;21.90;9.97;;;5.70;99.90;;;;;;4878395;29;20717;-75
2021/11/28 03:02:17;;;;;;;30.17;11.50;;;5.60;99.90;;;;;;4878610;29;20247;-75
2021/11/28 03:04:44;;;;;;;25.43;10.47;;;5.50;99.90;;;;;;4888702;29;20300;-74
2021/11/28 03:07:15;;;;;;;27.57;11.07;;;5.50;99.90;;;;;;4900289;29;20237;-75
2021/11/28 03:09:42;;;;;;;25.57;10.73;;;5.50;99.90;;;;;;4900201;29;20233;-75
2021/11/28 03:12:09;;;;;;;24.17;10.70;;;5.50;99.90;;;;;;4900118;29;20217;-75
2021/11/28 03:14:38;;;;;;;24.63;11.20;;;5.40;99.90;;;;;;4900269;29;20245;-74
2021/11/28 03:17:05;;;;;;;29.87;11.70;;;5.40;99.90;;;;;;4900254;29;20579;-74
2021/11/28 03:19:32;;;;;;;24.67;10.77;;;5.40;99.90;;;;;;4900303;29;20230;-73
2021/11/28 03:22:00;;;;;;;24.23;10.80;;;5.40;99.90;;;;;;4900136;29;20233;-73
2021/11/28 03:24:26;;;;;;;30.87;11.67;;;5.50;99.90;;;;;;4900533;29;20218;-74
2021/11/28 03:26:53;;;;;;;26.37;11.27;;;5.60;99.90;;;;;;4883990;29;20207;-74
2021/11/28 03:29:22;;;;;;;27.20;10.47;;;5.60;99.90;;;;;;4881428;29;20279;-72
2021/11/28 03:31:54;;;;;;;24.90;11.30;;;5.60;99.90;;;;;;4881325;29;20221;-74
2021/11/28 03:34:21;;;;;;;25.90;11.77;;;5.60;99.90;;;;;;4880792;29;20239;-75
2021/11/28 03:36:50;;;;;;;27.37;9.80;;;5.60;99.90;;;;;;4881203;29;20291;-76
2021/11/28 03:39:19;;;;;;;26.43;10.07;;;5.50;99.90;;;;;;4880458;29;20591;-75
2021/11/28 03:41:49;;;;;;;27.13;10.47;;;5.50;99.90;;;;;;4881022;29;20267;-74
2021/11/28 03:44:16;;;;;;;31.40;11.00;;;5.50;99.90;;;;;;4881106;29;20694;-74
2021/11/28 03:46:42;;;;;;;29.80;11.60;;;5.50;99.90;;;;;;4880845;29;20207;-74
2021/11/28 03:49:11;;;;;;;25.30;9.13;;;5.40;99.90;;;;;;4881041;29;20231;-75
2021/11/28 03:51:37;;;;;;;22.77;10.83;;;5.40;99.90;;;;;;4881093;29;20295;-75
2021/11/28 03:54:05;;;;;;;27.63;10.87;;;5.40;99.90;;;;;;4881024;29;20239;-75
2021/11/28 03:56:32;;;;;;;20.30;8.97;;;5.40;99.90;;;;;;4880732;29;20203;-75
2021/11/28 03:58:59;;;;;;;26.67;9.77;;;5.40;99.90;;;;;;4880835;29;20634;-75
2021/11/28 04:01:26;;;;;;;26.17;10.60;;;5.40;99.90;;;;;;4880966;29;20234;-75
2021/11/28 04:03:53;;;;;;;26.27;10.73;;;5.40;99.90;;;;;;4880730;29;20215;-75
2021/11/28 04:06:22;;;;;;;28.63;10.63;;;5.40;99.90;;;;;;4880758;29;20669;-75
2021/11/28 04:08:50;;;;;;;23.13;9.57;;;5.40;99.90;;;;;;4880757;29;20724;-73
2021/11/28 04:11:17;;;;;;;26.93;10.10;;;5.40;99.90;;;;;;4880862;29;20211;-75
2021/11/28 04:13:44;;;;;;;28.43;10.53;;;5.40;99.90;;;;;;4880255;29;20253;-76
2021/11/28 04:16:11;;;;;;;30.70;10.43;;;5.40;99.90;;;;;;4879677;29;20215;-74
2021/11/28 04:18:38;;;;;;;28.97;10.43;;;5.30;99.90;;;;;;4880516;29;20302;-76
2021/11/28 04:21:05;;;;;;;28.43;11.47;;;5.40;99.90;;;;;;4880263;29;20760;-74
2021/11/28 04:23:33;;;;;;;28.90;11.40;;;5.30;99.90;;;;;;4880271;29;20211;-74
2021/11/28 04:26:00;;;;;;;26.70;11.47;;;5.30;99.90;;;;;;4880442;29;20215;-75
2021/11/28 04:28:27;;;;;;;27.47;11.70;;;5.30;99.90;;;;;;4880062;29;20686;-74
2021/11/28 04:30:54;;;;;;;29.30;11.50;;;5.30;99.90;;;;;;4880404;29;20687;-75
2021/11/28 04:33:21;;;;;;;26.00;10.87;;;5.40;99.90;;;;;;4880132;29;20833;-75
2021/11/28 04:35:48;;;;;;;30.77;11.80;;;5.20;99.90;;;;;;4880172;29;20242;-74
2021/11/28 04:38:15;;;;;;;31.30;11.47;;;5.30;99.90;;;;;;4880189;29;20263;-75
2021/11/28 04:40:44;;;;;;;33.07;12.03;;;5.40;99.90;;;;;;4879941;29;20242;-75
2021/11/28 04:43:10;;;;;;;27.73;11.87;;;5.30;99.90;;;;;;4879850;29;20222;-75
2021/11/28 04:45:37;;;;;;;29.93;11.63;;;5.40;99.90;;;;;;4879991;29;20211;-76
2021/11/28 04:48:05;;;;;;;26.07;11.17;;;5.40;99.90;;;;;;4880144;29;20215;-74
2021/11/28 04:50:32;;;;;;;32.37;13.10;;;5.40;99.90;;;;;;4879654;29;20234;-75
2021/11/28 04:52:59;;;;;;;31.47;12.07;;;5.50;99.90;;;;;;4880079;29;20215;-75
2021/11/28 04:55:25;;;;;;;34.00;12.90;;;5.50;99.90;;;;;;4879622;29;20243;-75
2021/11/28 04:57:53;;;;;;;28.83;11.40;;;5.60;99.90;;;;;;4879777;29;20239;-75
2021/11/28 05:00:23;;;;;;;26.43;11.33;;;5.50;99.90;;;;;;4881249;29;20231;-74
2021/11/28 05:02:50;;;;;;;30.47;12.83;;;5.50;99.90;;;;;;4897922;29;20222;-75
2021/11/28 05:05:18;;;;;;;33.57;13.33;;;5.60;99.90;;;;;;4898300;29;20214;-75
2021/11/28 05:07:45;;;;;;;29.27;12.10;;;5.60;99.90;;;;;;4898286;29;20572;-75
2021/11/28 05:10:11;;;;;;;28.47;11.77;;;5.60;99.90;;;;;;4898188;29;20317;-75
2021/11/28 05:12:40;;;;;;;32.97;12.83;;;5.60;99.90;;;;;;4898209;29;20218;-76
2021/11/28 05:15:09;;;;;;;29.57;11.73;;;5.60;99.90;;;;;;4898207;29;20242;-75
2021/11/28 05:17:36;;;;;;;33.87;11.90;;;5.70;99.90;;;;;;4898039;29;20700;-76
2021/11/28 05:20:04;;;;;;;28.43;11.30;;;5.60;99.90;;;;;;4897969;29;20719;-75
2021/11/28 05:22:31;;;;;;;32.90;12.30;;;5.60;99.90;;;;;;4897981;29;20238;-75
2021/11/28 05:24:58;;;;;;;28.37;11.83;;;5.70;99.90;;;;;;4898325;29;20225;-75
2021/11/28 05:27:25;;;;;;;29.20;11.73;;;5.60;99.90;;;;;;4898492;29;20218;-74
2021/11/28 05:29:52;;;;;;;25.97;10.80;;;5.70;99.90;;;;;;4897932;29;20241;-75
2021/11/28 05:32:20;;;;;;;31.17;11.97;;;5.80;99.90;;;;;;4897198;29;20615;-72
2021/11/28 05:34:47;;;;;;;29.17;12.00;;;5.60;99.90;;;;;;4878971;29;20254;-76
2021/11/28 05:37:15;;;;;;;31.50;12.67;;;5.70;99.90;;;;;;4878905;29;20248;-76
2021/11/28 05:39:42;;;;;;;27.70;11.30;;;5.80;99.90;;;;;;4878426;29;20317;-76
2021/11/28 05:42:09;;;;;;;28.57;11.67;;;5.90;99.90;;;;;;4879023;29;20661;-77
2021/11/28 05:44:36;;;;;;;31.50;11.60;;;5.90;99.90;;;;;;4879286;29;20222;-76
2021/11/28 05:47:03;;;;;;;24.77;10.73;;;5.80;99.90;;;;;;4879349;29;20237;-76
2021/11/28 05:49:31;;;;;;;28.63;10.53;;;5.80;99.90;;;;;;4878803;29;20242;-76
2021/11/28 05:51:58;;;;;;;31.20;12.37;;;5.80;99.90;;;;;;4879126;29;20214;-77
2021/11/28 05:54:25;;;;;;;30.30;11.60;;;5.90;99.90;;;;;;4893054;29;20576;-76
2021/11/28 05:56:52;;;;;;;30.77;12.37;;;6.00;99.90;;;;;;4897624;29;20245;-76
2021/11/28 05:59:19;;;;;;;28.83;10.73;;;5.90;99.90;;;;;;4897469;29;20244;-77
2021/11/28 06:01:46;;;;;;;25.77;10.47;;;5.80;99.90;;;;;;4897950;29;20335;-76
2021/11/28 06:04:13;;;;;;;28.67;10.33;;;5.80;99.90;;;;;;4897533;29;20295;-77
2021/11/28 06:06:41;;;;;;;24.63;10.03;;;5.80;99.90;;;;;;4897664;29;20568;-72
2021/11/28 06:09:08;;;;;;;25.20;10.80;;;5.80;99.90;;;;;;4878435;29;20234;-77
2021/11/28 06:11:35;;;;;;;24.87;9.80;;;5.90;99.90;;;;;;4878573;29;20219;-77
2021/11/28 06:14:02;;;;;;;26.90;10.03;;;5.80;99.90;;;;;;4878427;29;20231;-76
2021/11/28 06:16:29;;;;;;;20.27;9.50;;;5.90;99.90;;;;;;4878660;29;20211;-77
2021/11/28 06:18:56;;;;;;;22.53;9.77;;;6.00;99.90;;;;;;4878365;29;20235;-77
2021/11/28 06:21:22;;;;;;;25.03;9.87;;;6.10;99.90;;;;;;4879172;29;20214;-77
2021/11/28 06:23:50;;;;;;;28.93;10.13;;;6.10;99.90;;;;;;4878284;29;20207;-77
2021/11/28 06:26:17;;;;;;;24.70;10.03;;;6.00;99.90;;;;;;4878190;29;20665;-76
2021/11/28 06:28:44;;;;;;;24.13;10.20;;;5.90;99.90;;;;;;4878364;29;20215;-76
2021/11/28 06:31:11;;;;;;;24.97;10.73;;;5.80;99.90;;;;;;4878664;29;20223;-77
2021/11/28 06:33:39;;;;;;;28.17;10.73;;;5.90;99.90;;;;;;4893817;29;20308;-76
2021/11/28 06:36:05;;;;;;;28.13;9.97;;;5.70;99.90;;;;;;4896022;29;20230;-77
2021/11/28 06:38:34;;;;;;;21.80;9.57;;;5.60;99.90;;;;;;4895986;29;20206;-78
2021/11/28 06:41:02;;;;;;;22.33;9.10;;;5.70;99.90;;;;;;4898675;29;20258;-77
2021/11/28 06:43:29;;;;;;;27.13;9.80;;;5.80;99.90;;;;;;4899633;29;20214;-76
2021/11/28 06:45:56;;;;;;;19.93;8.37;;;5.80;99.90;;;;;;4899559;29;20206;-76
2021/11/28 06:48:23;;;;;;;17.93;7.73;;;5.80;99.90;;;;;;4899944;29;20203;-76
2021/11/28 06:50:51;;;;;;;19.50;7.97;;;5.80;99.90;;;;;;4899652;29;20218;-76
2021/11/28 06:53:18;;;;;;;19.03;7.83;;;5.70;99.90;;;;;;4899313;29;20238;-76
2021/11/28 06:55:45;;;;;;;13.00;5.97;;;5.80;99.90;;;;;;4899424;29;20704;-76
2021/11/28 06:58:15;;;;;;;14.70;6.40;;;5.70;99.90;;;;;;4900749;29;20213;-76
2021/11/28 07:00:42;;;;;;;13.67;5.23;;;5.70;99.90;;;;;;4900096;29;20230;-76
2021/11/28 07:03:09;;;;;;;14.93;5.87;;;5.50;99.90;;;;;;4900151;29;20214;-77
2021/11/28 07:05:36;;;;;;;13.47;5.47;;;5.50;99.90;;;;;;4899517;29;20735;-72
2021/11/28 07:08:03;;;;;;;14.43;5.27;;;5.40;99.90;;;;;;4899271;29;20246;-75
2021/11/28 07:10:30;;;;;;;11.13;4.93;;;5.40;99.90;;;;;;4896311;29;20232;-77
2021/11/28 07:12:57;;;;;;;14.47;5.37;;;5.50;99.90;;;;;;4899259;29;20206;-76
2021/11/28 07:15:25;;;;;;;11.60;5.27;;;5.40;99.90;;;;;;4898957;29;20261;-74
2021/11/28 07:17:51;;;;;;;14.97;5.30;;;5.50;99.90;;;;;;4898783;29;20213;-76
2021/11/28 07:20:18;;;;;;;11.30;4.87;;;5.50;99.90;;;;;;4899956;29;20321;-77
2021/11/28 07:22:45;;;;;;;15.93;5.70;;;5.60;99.90;;;;;;4900251;29;20206;-76
2021/11/28 07:25:12;;;;;;;12.17;5.30;;;5.70;99.90;;;;;;4900666;29;20230;-77
2021/11/28 07:27:39;;;;;;;14.67;5.43;;;5.70;99.90;;;;;;4899995;29;20218;-77
2021/11/28 07:30:07;;;;;;;13.83;6.17;;;5.80;99.90;;;;;;4899197;29;20699;-75
2021/11/28 07:32:35;;;;;;;12.10;5.33;;;5.80;99.90;;;;;;4881287;29;20248;-76
2021/11/28 07:35:03;;;;;;;14.63;5.77;;;5.90;99.90;;;;;;4881054;29;20239;-76
2021/11/28 07:37:30;;;;;;;13.00;5.90;;;6.00;99.90;;;;;;4881237;29;20673;-77
2021/11/28 07:39:57;;;;;;;12.30;6.00;;;6.00;99.90;;;;;;4881383;29;20242;-77
2021/11/28 07:42:24;;;;;;;14.17;5.57;;;6.00;99.90;;;;;;4881231;29;20211;-76
2021/11/28 07:44:51;;;;;;;10.23;5.53;;;6.10;99.90;;;;;;4881279;29;20669;-76
2021/11/28 07:47:18;;;;;;;14.80;6.70;;;6.10;99.90;;;;;;4881381;29;20215;-75
2021/11/28 07:49:46;;;;;;;12.90;5.77;;;6.10;99.90;;;;;;4881057;29;20241;-75
2021/11/28 07:52:13;;;;;;;15.80;6.33;;;6.10;99.90;;;;;;4880217;29;20207;-75
2021/11/28 07:54:40;;;;;;;17.20;6.57;;;6.30;99.90;;;;;;4881150;29;20245;-75
2021/11/28 07:57:07;;;;;;;12.73;5.67;;;6.40;99.90;;;;;;4881173;29;20565;-75
2021/11/28 07:59:34;;;;;;;13.53;6.33;;;6.40;99.90;;;;;;4880837;29;20326;-75
2021/11/28 08:02:01;;;;;;;14.50;6.40;;;6.40;99.90;;;;;;4880872;29;20600;-73
2021/11/28 08:04:28;;;;;;;16.97;6.47;;;6.40;99.90;;;;;;4895684;29;20207;-76
2021/11/28 08:06:56;;;;;;;12.87;6.20;;;6.40;99.90;;;;;;4880959;29;20238;-75
2021/11/28 08:09:23;;;;;;;14.57;6.57;;;6.30;99.90;;;;;;4880833;29;20237;-75
2021/11/28 08:11:50;;;;;;;15.80;6.60;;;6.40;99.90;;;;;;4889868;29;20255;-77
2021/11/28 08:14:17;;;;;;;17.13;7.17;;;6.30;99.90;;;;;;4899815;29;20212;-76
2021/11/28 08:16:45;;;;;;;14.23;6.07;;;6.40;99.90;;;;;;4899811;29;20211;-76
2021/11/28 08:19:11;;;;;;;16.87;7.03;;;6.40;99.90;;;;;;4898498;29;20602;-75
2021/11/28 08:21:38;;;;;;;20.23;8.17;;;6.50;99.90;;;;;;4895804;29;20211;-74
2021/11/28 08:24:07;;;;;;;16.67;6.77;;;6.60;99.90;;;;;;4898045;29;20216;-75
2021/11/28 08:26:36;;;;;;;17.67;7.60;;;6.50;99.90;;;;;;4898777;29;20720;-74
2021/11/28 08:29:05;;;;;;;15.67;7.07;;;6.60;99.90;;;;;;4896360;29;20258;-76
2021/11/28 08:31:33;;;;;;;19.17;7.20;;;6.50;99.90;;;;;;4898384;29;20206;-79
2021/11/28 08:34:01;;;;;;;17.73;7.13;;;6.60;99.90;;;;;;4897866;29;20206;-75
2021/11/28 08:36:29;;;;;;;15.80;7.57;;;6.60;99.90;;;;;;4897064;29;20230;-77
2021/11/28 08:38:57;;;;;;;15.27;7.03;;;6.50;99.90;;;;;;4895541;29;20226;-74
2021/11/28 08:41:27;;;;;;;20.40;7.47;;;6.50;99.90;;;;;;4897854;29;20217;-77
2021/11/28 08:43:55;;;;;;;15.60;7.20;;;6.50;99.90;;;;;;4898692;29;20222;-76
2021/11/28 08:46:22;;;;;;;14.53;6.57;;;6.60;99.90;;;;;;4898851;29;20214;-75
2021/11/28 08:48:49;;;;;;;15.67;7.03;;;6.80;99.90;;;;;;4898752;29;20627;-75
2021/11/28 08:51:16;;;;;;;14.97;6.67;;;6.80;99.90;;;;;;4897766;29;20202;-75
2021/11/28 08:53:43;;;;;;;14.03;6.37;;;6.80;99.90;;;;;;4898446;29;20216;-76
2021/11/28 08:56:10;;;;;;;14.70;6.60;;;6.80;99.90;;;;;;4890248;29;20386;-75
2021/11/28 08:58:39;;;;;;;17.37;7.07;;;7.00;99.90;;;;;;4892926;29;20668;-75
2021/11/28 09:01:06;;;;;;;15.53;7.23;;;7.10;99.90;;;;;;4898702;29;20214;-77
2021/11/28 09:03:33;;;;;;;15.23;6.40;;;7.10;99.90;;;;;;4897651;29;20588;-78
2021/11/28 09:06:00;;;;;;;14.30;6.70;;;7.00;99.90;;;;;;4898798;29;20214;-74
2021/11/28 09:08:27;;;;;;;16.17;6.47;;;7.10;99.90;;;;;;4897977;29;20234;-76
2021/11/28 09:10:53;;;;;;;12.77;5.80;;;7.20;99.90;;;;;;4897738;29;20256;-73
2021/11/28 09:13:20;;;;;;;14.80;6.67;;;7.30;99.90;;;;;;4897954;29;20210;-77
2021/11/28 09:15:49;;;;;;;15.00;6.67;;;7.60;99.90;;;;;;4898223;29;20242;-77
2021/11/28 09:18:19;;;;;;;18.67;6.70;;;7.70;99.90;;;;;;4897800;29;20212;-76
2021/11/28 09:20:50;;;;;;;17.90;6.50;;;7.70;99.90;;;;;;4881195;29;20710;-74
2021/11/28 09:26:03;;;;;;;15.77;6.80;;;7.60;99.90;;;;;;4879557;29;20270;-77
2021/11/28 09:28:30;;;;;;;13.87;6.03;;;7.30;99.90;;;;;;4879581;29;20215;-77
2021/11/28 09:30:58;;;;;;;14.93;6.30;;;7.40;99.90;;;;;;4879835;29;20211;-78
2021/11/28 09:33:25;;;;;;;14.63;6.27;;;7.50;99.90;;;;;;4879575;29;20234;-77
2021/11/28 09:35:51;;;;;;;14.33;6.20;;;7.60;99.90;;;;;;4879820;29;20727;-78
2021/11/28 09:38:18;;;;;;;15.13;6.67;;;7.70;99.90;;;;;;4879556;29;20529;-77
2021/11/28 09:40:47;;;;;;;15.17;7.70;;;7.70;99.90;;;;;;4879333;29;20588;-77
2021/11/28 09:43:15;;;;;;;16.10;6.50;;;7.70;99.90;;;;;;4879486;29;20217;-78
2021/11/28 09:45:46;;;;;;;13.20;6.17;;;7.90;99.90;;;;;;4879481;29;20246;-77
2021/11/28 09:48:15;;;;;;;14.00;6.20;;;8.10;99.90;;;;;;4879276;29;20665;-77
2021/11/28 09:50:43;;;;;;;12.30;6.80;;;8.20;99.90;;;;;;4879467;29;20241;-77
2021/11/28 09:53:12;;;;;;;13.87;6.30;;;8.20;99.90;;;;;;4879348;29;20204;-78
2021/11/28 09:55:40;;;;;;;15.77;5.80;;;8.20;99.90;;;;;;4879349;29;20597;-78
2021/11/28 09:58:08;;;;;;;15.23;6.13;;;8.20;99.90;;;;;;4879569;29;20660;-78
2021/11/28 10:00:35;;;;;;;14.70;6.37;;;8.10;99.90;;;;;;4879556;29;20234;-78
2021/11/28 10:03:03;;;;;;;10.70;5.83;;;8.10;99.90;;;;;;4879088;29;20743;-77
2021/11/28 10:05:31;;;;;;;13.20;6.20;;;8.30;99.90;;;;;;4879108;29;20222;-78
2021/11/28 10:08:02;;;;;;;11.00;5.27;;;8.50;99.90;;;;;;4879131;29;20636;-77
2021/11/28 10:10:28;;;;;;;12.27;5.50;;;8.60;99.90;;;;;;4879341;29;20238;-77
2021/11/28 10:12:56;;;;;;;14.83;5.50;;;8.70;99.90;;;;;;4879583;29;20221;-78
2021/11/28 10:15:27;;;;;;;14.47;6.20;;;8.60;99.90;;;;;;4880779;29;20645;-77
2021/11/28 10:17:54;;;;;;;10.30;5.37;;;8.50;99.90;;;;;;4882887;29;20258;-79
2021/11/28 10:20:22;;;;;;;10.40;5.63;;;8.30;99.90;;;;;;4882285;29;20753;-77
2021/11/28 10:22:51;;;;;;;12.37;5.53;;;8.30;99.90;;;;;;4882613;29;20211;-77
2021/11/28 10:25:24;;;;;;;12.93;5.27;;;8.20;99.90;;;;;;4882874;29;20241;-77
2021/11/28 10:27:54;;;;;;;12.33;5.47;;;8.10;99.90;;;;;;4882957;29;20242;-77
2021/11/28 10:30:37;;;;;;;12.27;5.37;;;8.00;99.90;;;;;;4882654;29;20241;-77
2021/11/28 10:33:09;;;;;;;9.73;4.77;;;7.90;99.90;;;;;;4882620;29;20215;-76
2021/11/28 10:35:36;;;;;;;10.37;4.80;;;7.70;99.90;;;;;;4882880;29;20261;-76
2021/11/28 10:38:12;;;;;;;9.90;4.87;;;7.80;99.90;;;;;;4882764;29;20211;-76
2021/11/28 10:40:45;;;;;;;12.70;6.47;;;7.80;99.90;;;;;;4882552;29;20253;-77
2021/11/28 10:43:14;;;;;;;10.00;4.70;;;7.80;99.90;;;;;;4882626;29;20214;-76
2021/11/28 10:45:47;;;;;;;12.70;4.87;;;7.80;99.90;;;;;;4882720;29;20211;-78
2021/11/28 10:48:15;;;;;;;8.40;4.80;;;7.80;99.90;;;;;;4882414;29;20636;-78
2021/11/28 10:50:42;;;;;;;8.33;4.00;;;7.80;99.90;;;;;;4882614;29;20235;-78
2021/11/28 10:53:12;;;;;;;11.43;4.50;;;7.70;99.90;;;;;;4882713;29;20211;-78
2021/11/28 10:55:40;;;;;;;10.93;4.67;;;7.70;99.90;;;;;;4882503;29;20238;-78
2021/11/28 10:58:11;;;;;;;10.10;3.73;;;7.60;99.90;;;;;;4882236;29;20218;-77
2021/11/28 11:00:40;;;;;;;9.77;4.30;;;7.70;99.90;;;;;;4882528;29;20227;-78
2021/11/28 11:03:15;;;;;;;8.03;4.17;;;7.70;99.90;;;;;;4882496;29;20310;-77
2021/11/28 11:05:43;;;;;;;9.33;4.30;;;7.60;99.90;;;;;;4882166;29;20214;-78
2021/11/28 11:08:15;;;;;;;8.50;4.40;;;7.70;99.90;;;;;;4882174;29;20242;-77
2021/11/28 11:10:42;;;;;;;9.87;4.53;;;7.70;99.90;;;;;;4882203;29;20235;-78
2021/11/28 11:13:13;;;;;;;9.80;4.80;;;7.80;99.90;;;;;;4882554;29;20211;-78
2021/11/28 11:15:41;;;;;;;11.17;5.47;;;7.80;99.90;;;;;;4881632;29;20232;-77
2021/11/28 11:18:10;;;;;;;7.57;4.10;;;7.90;99.90;;;;;;4882266;29;20279;-77
2021/11/28 11:20:38;;;;;;;9.37;4.80;;;7.70;99.90;;;;;;4881910;29;20292;-77
2021/11/28 11:23:26;;;;;;;9.53;4.47;;;7.90;99.90;;;;;;4881890;29;20687;-77
2021/11/28 11:26:12;;;;;;;7.27;4.07;;;7.90;99.90;;;;;;4881624;29;20211;-76
2021/11/28 11:28:59;;;;;;;9.20;4.37;;;7.70;99.90;;;;;;4881804;29;20215;-77
2021/11/28 11:31:26;;;;;;;9.67;4.77;;;7.50;99.90;;;;;;4881494;29;20217;-77
2021/11/28 11:33:53;;;;;;;8.60;4.53;;;7.40;99.90;;;;;;4881668;29;20207;-78
2021/11/28 11:36:20;;;;;;;9.37;4.70;;;7.40;99.90;;;;;;4881659;29;20286;-77
2021/11/28 11:38:48;;;;;;;10.40;5.10;;;7.50;99.90;;;;;;4881525;29;20211;-76
2021/11/28 11:41:18;;;;;;;11.27;5.30;;;7.40;99.90;;;;;;4881750;29;20207;-77
2021/11/28 11:43:46;;;;;;;10.03;5.17;;;7.40;99.90;;;;;;4881345;29;20207;-75
2021/11/28 11:46:14;;;;;;;14.60;6.23;;;7.60;99.90;;;;;;4881429;29;20219;-76
2021/11/28 11:48:42;;;;;;;13.47;5.73;;;7.60;99.90;;;;;;4881772;29;20215;-76
2021/11/28 11:51:10;;;;;;;12.43;6.60;;;7.70;99.90;;;;;;4881221;29;20692;-77
2021/11/28 11:53:37;;;;;;;10.50;5.93;;;7.80;99.90;;;;;;4881370;29;20215;-75
2021/11/28 11:56:10;;;;;;;15.23;6.50;;;7.70;99.90;;;;;;4881109;29;20243;-75
2021/11/28 11:58:49;;;;;;;15.17;6.80;;;7.60;99.90;;;;;;4881137;29;20211;-76
2021/11/28 12:01:24;;;;;;;12.20;5.73;;;7.50;99.90;;;;;;4884942;29;20695;-77
2021/11/28 12:03:54;;;;;;;12.53;5.87;;;7.50;99.90;;;;;;4896459;29;20352;-77
2021/11/28 12:06:45;;;;;;;12.10;6.03;;;7.40;99.90;;;;;;4898977;29;20210;-76
2021/11/28 12:09:24;;;;;;;11.23;5.67;;;7.40;99.90;;;;;;4880794;29;20705;-76
2021/11/28 12:11:55;;;;;;;11.67;6.13;;;7.50;99.90;;;;;;4880809;29;20217;-76
2021/11/28 12:14:23;;;;;;;12.67;6.37;;;7.50;99.90;;;;;;4880375;29;20248;-75
2021/11/28 12:16:50;;;;;;;11.20;6.33;;;7.40;99.90;;;;;;4880438;29;20739;-76
2021/11/28 12:19:38;;;;;;;10.60;6.30;;;7.40;99.90;;;;;;4880129;29;20231;-76
2021/11/28 12:22:05;;;;;;;12.87;6.07;;;7.40;99.90;;;;;;4880441;29;20215;-77
2021/11/28 12:24:32;;;;;;;9.73;5.40;;;7.50;99.90;;;;;;4880375;29;20215;-75
2021/11/28 12:27:00;;;;;;;10.37;5.40;;;7.40;99.90;;;;;;4880827;29;20218;-75
2021/11/28 12:29:45;;;;;;;25.30;10.47;;;7.50;99.90;;;;;;4880124;29;20231;-76
2021/11/28 12:32:33;;;;;;;8.67;4.87;;;7.20;99.90;;;;;;4880341;29;20237;-75
2021/11/28 12:35:07;;;;;;;7.80;4.23;;;7.10;99.90;;;;;;4880467;29;20234;-76
2021/11/28 12:37:39;;;;;;;8.27;4.23;;;7.20;99.90;;;;;;4879586;29;20274;-75
2021/11/28 12:40:21;;;;;;;6.33;3.77;;;7.10;99.90;;;;;;4880039;29;20279;-76
2021/11/28 12:42:48;;;;;;;6.27;3.63;;;7.00;99.90;;;;;;4887164;29;20202;-77
2021/11/28 12:45:28;;;;;;;7.27;3.37;;;6.90;99.90;;;;;;4899401;29;20307;-75
2021/11/28 12:48:03;;;;;;;5.87;3.03;;;6.90;99.90;;;;;;4899055;29;20214;-76
2021/11/28 12:50:47;;;;;;;7.33;3.87;;;6.90;99.90;;;;;;4898284;29;20626;-76
2021/11/28 12:53:26;;;;;;;5.77;4.03;;;7.00;99.90;;;;;;4899143;29;20210;-75
2021/11/28 12:56:23;;;;;;;7.90;4.50;;;6.80;99.90;;;;;;4885070;29;20207;-76